sensor_id;sensor_type;location;lat;lon;timestamp;P1;durP1;ratioP1;P2;durP2;ratioP2
3175;SDS011;1599;51.564;6.990;2023-08-07T00:00:46;3.50;;;2.27;;
3175;SDS011;1599;51.564;6.990;2023-08-07T00:03:12;15.87;;;3.03;;
3175;SDS011;1599;51.564;6.990;2023-08-07T00:05:44;5.13;;;3.27;;
3175;SDS011;1599;51.564;6.990;2023-08-07T00:08:11;11.10;;;3.30;;
3175;SDS011;1599;51.564;6.990;2023-08-07T00:10:37;4.43;;;2.67;;
3175;SDS011;1599;51.564;6.990;2023-08-07T00:13:03;7.03;;;4.20;;
3175;SDS011;1599;51.564;6.990;2023-08-07T00:15:29;5.77;;;3.90;;
3175;SDS011;1599;51.564;6.990;2023-08-07T00:17:55;13.20;;;4.77;;
3175;SDS011;1599;51.564;6.990;2023-08-07T00:20:20;9.53;;;5.00;;
3175;SDS011;1599;51.564;6.990;2023-08-07T00:22:46;12.20;;;6.20;;
3175;SDS011;1599;51.564;6.990;2023-08-07T00:25:12;11.60;;;5.30;;
3175;SDS011;1599;51.564;6.990;2023-08-07T00:27:38;13.30;;;5.57;;
3175;SDS011;1599;51.564;6.990;2023-08-07T00:30:03;15.20;;;7.50;;
3175;SDS011;1599;51.564;6.990;2023-08-07T00:32:30;10.43;;;6.30;;
3175;SDS011;1599;51.564;6.990;2023-08-07T00:34:55;16.33;;;6.60;;
3175;SDS011;1599;51.564;6.990;2023-08-07T00:37:21;11.20;;;5.87;;
3175;SDS011;1599;51.564;6.990;2023-08-07T00:39:47;17.63;;;7.03;;
3175;SDS011;1599;51.564;6.990;2023-08-07T00:42:13;9.93;;;5.40;;
3175;SDS011;1599;51.564;6.990;2023-08-07T00:44:38;13.70;;;5.57;;
3175;SDS011;1599;51.564;6.990;2023-08-07T00:47:04;12.60;;;6.07;;
3175;SDS011;1599;51.564;6.990;2023-08-07T00:49:31;8.63;;;5.00;;
3175;SDS011;1599;51.564;6.990;2023-08-07T00:51:57;8.10;;;4.97;;
3175;SDS011;1599;51.564;6.990;2023-08-07T00:54:23;12.27;;;4.97;;
3175;SDS011;1599;51.564;6.990;2023-08-07T00:56:50;16.50;;;5.90;;
3175;SDS011;1599;51.564;6.990;2023-08-07T00:59:16;11.20;;;6.97;;
3175;SDS011;1599;51.564;6.990;2023-08-07T01:01:44;9.53;;;5.87;;
3175;SDS011;1599;51.564;6.990;2023-08-07T01:04:10;14.63;;;5.23;;
3175;SDS011;1599;51.564;6.990;2023-08-07T01:06:36;14.97;;;5.63;;
3175;SDS011;1599;51.564;6.990;2023-08-07T01:09:02;13.40;;;4.57;;
3175;SDS011;1599;51.564;6.990;2023-08-07T01:14:36;7.47;;;4.07;;
3175;SDS011;1599;51.564;6.990;2023-08-07T01:17:06;10.90;;;4.47;;
3175;SDS011;1599;51.564;6.990;2023-08-07T01:19:39;6.90;;;3.97;;
3175;SDS011;1599;51.564;6.990;2023-08-07T01:22:09;9.90;;;5.17;;
3175;SDS011;1599;51.564;6.990;2023-08-07T01:24:43;11.50;;;5.13;;
3175;SDS011;1599;51.564;6.990;2023-08-07T01:32:11;14.00;;;4.77;;
3175;SDS011;1599;51.564;6.990;2023-08-07T01:34:42;8.73;;;3.90;;
3175;SDS011;1599;51.564;6.990;2023-08-07T01:37:10;8.87;;;3.53;;
3175;SDS011;1599;51.564;6.990;2023-08-07T01:39:37;9.50;;;3.40;;
3175;SDS011;1599;51.564;6.990;2023-08-07T01:42:04;12.00;;;3.73;;
3175;SDS011;1599;51.564;6.990;2023-08-07T01:44:31;11.43;;;3.83;;
3175;SDS011;1599;51.564;6.990;2023-08-07T01:46:57;6.43;;;3.33;;
3175;SDS011;1599;51.564;6.990;2023-08-07T01:49:22;12.23;;;2.90;;
3175;SDS011;1599;51.564;6.990;2023-08-07T01:51:48;8.93;;;3.17;;
3175;SDS011;1599;51.564;6.990;2023-08-07T01:54:14;7.97;;;3.03;;
3175;SDS011;1599;51.564;6.990;2023-08-07T01:56:39;7.40;;;2.60;;
3175;SDS011;1599;51.564;6.990;2023-08-07T01:59:05;5.00;;;2.33;;
3175;SDS011;1599;51.564;6.990;2023-08-07T02:01:31;14.63;;;2.83;;
3175;SDS011;1599;51.564;6.990;2023-08-07T02:03:56;7.40;;;2.90;;
3175;SDS011;1599;51.564;6.990;2023-08-07T02:06:22;4.37;;;2.70;;
3175;SDS011;1599;51.564;6.990;2023-08-07T02:08:48;5.70;;;2.93;;
3175;SDS011;1599;51.564;6.990;2023-08-07T02:11:14;6.47;;;3.43;;
3175;SDS011;1599;51.564;6.990;2023-08-07T02:13:39;4.27;;;2.80;;
3175;SDS011;1599;51.564;6.990;2023-08-07T02:16:05;5.63;;;3.10;;
3175;SDS011;1599;51.564;6.990;2023-08-07T02:18:31;5.27;;;2.67;;
3175;SDS011;1599;51.564;6.990;2023-08-07T02:20:57;9.63;;;3.27;;
3175;SDS011;1599;51.564;6.990;2023-08-07T02:23:22;5.50;;;3.60;;
3175;SDS011;1599;51.564;6.990;2023-08-07T02:25:48;12.47;;;3.50;;
3175;SDS011;1599;51.564;6.990;2023-08-07T02:28:15;8.50;;;4.00;;
3175;SDS011;1599;51.564;6.990;2023-08-07T02:30:41;6.80;;;3.93;;
3175;SDS011;1599;51.564;6.990;2023-08-07T02:33:11;5.40;;;3.47;;
3175;SDS011;1599;51.564;6.990;2023-08-07T02:35:37;10.23;;;4.27;;
3175;SDS011;1599;51.564;6.990;2023-08-07T02:38:03;5.47;;;3.40;;
3175;SDS011;1599;51.564;6.990;2023-08-07T02:40:28;5.27;;;4.33;;
3175;SDS011;1599;51.564;6.990;2023-08-07T02:42:55;5.67;;;3.90;;
3175;SDS011;1599;51.564;6.990;2023-08-07T02:45:21;7.87;;;4.47;;
3175;SDS011;1599;51.564;6.990;2023-08-07T02:47:46;5.63;;;3.00;;
3175;SDS011;1599;51.564;6.990;2023-08-07T02:50:12;5.33;;;3.30;;
3175;SDS011;1599;51.564;6.990;2023-08-07T02:52:38;7.27;;;3.80;;
3175;SDS011;1599;51.564;6.990;2023-08-07T02:55:04;9.80;;;4.00;;
3175;SDS011;1599;51.564;6.990;2023-08-07T02:57:30;6.23;;;3.47;;
3175;SDS011;1599;51.564;6.990;2023-08-07T02:59:56;7.57;;;3.60;;
3175;SDS011;1599;51.564;6.990;2023-08-07T03:02:21;7.53;;;4.00;;
3175;SDS011;1599;51.564;6.990;2023-08-07T03:04:47;8.87;;;3.73;;
3175;SDS011;1599;51.564;6.990;2023-08-07T03:07:13;6.17;;;3.80;;
3175;SDS011;1599;51.564;6.990;2023-08-07T03:09:39;11.20;;;3.77;;
3175;SDS011;1599;51.564;6.990;2023-08-07T03:12:04;11.47;;;4.30;;
3175;SDS011;1599;51.564;6.990;2023-08-07T03:14:30;9.57;;;4.67;;
3175;SDS011;1599;51.564;6.990;2023-08-07T03:16:56;9.33;;;5.43;;
3175;SDS011;1599;51.564;6.990;2023-08-07T03:19:22;8.10;;;5.57;;
3175;SDS011;1599;51.564;6.990;2023-08-07T03:21:48;11.67;;;4.33;;
3175;SDS011;1599;51.564;6.990;2023-08-07T03:24:14;14.00;;;4.80;;
3175;SDS011;1599;51.564;6.990;2023-08-07T03:26:40;11.60;;;4.60;;
3175;SDS011;1599;51.564;6.990;2023-08-07T03:29:06;11.80;;;4.47;;
3175;SDS011;1599;51.564;6.990;2023-08-07T03:31:31;9.77;;;4.73;;
3175;SDS011;1599;51.564;6.990;2023-08-07T03:33:57;10.07;;;5.20;;
3175;SDS011;1599;51.564;6.990;2023-08-07T03:36:23;17.60;;;5.70;;
3175;SDS011;1599;51.564;6.990;2023-08-07T03:38:49;14.87;;;5.13;;
3175;SDS011;1599;51.564;6.990;2023-08-07T03:41:15;12.87;;;5.70;;
3175;SDS011;1599;51.564;6.990;2023-08-07T03:43:40;11.73;;;5.50;;
3175;SDS011;1599;51.564;6.990;2023-08-07T03:46:06;19.00;;;5.80;;
3175;SDS011;1599;51.564;6.990;2023-08-07T03:48:32;12.07;;;4.40;;
3175;SDS011;1599;51.564;6.990;2023-08-07T03:51:07;13.90;;;6.80;;
3175;SDS011;1599;51.564;6.990;2023-08-07T03:53:33;11.90;;;6.07;;
3175;SDS011;1599;51.564;6.990;2023-08-07T03:55:59;18.30;;;5.47;;
3175;SDS011;1599;51.564;6.990;2023-08-07T03:58:25;10.97;;;5.00;;
3175;SDS011;1599;51.564;6.990;2023-08-07T04:00:51;14.23;;;4.87;;
3175;SDS011;1599;51.564;6.990;2023-08-07T04:03:17;19.80;;;5.27;;
3175;SDS011;1599;51.564;6.990;2023-08-07T04:05:45;16.93;;;4.70;;
3175;SDS011;1599;51.564;6.990;2023-08-07T04:08:10;16.27;;;5.03;;
3175;SDS011;1599;51.564;6.990;2023-08-07T04:10:36;16.33;;;4.70;;
3175;SDS011;1599;51.564;6.990;2023-08-07T04:13:02;12.73;;;4.70;;
3175;SDS011;1599;51.564;6.990;2023-08-07T04:15:28;21.00;;;8.23;;
3175;SDS011;1599;51.564;6.990;2023-08-07T04:17:54;15.63;;;5.27;;
3175;SDS011;1599;51.564;6.990;2023-08-07T04:20:20;13.50;;;5.37;;
3175;SDS011;1599;51.564;6.990;2023-08-07T04:22:45;17.43;;;6.13;;
3175;SDS011;1599;51.564;6.990;2023-08-07T04:25:11;15.00;;;6.00;;
3175;SDS011;1599;51.564;6.990;2023-08-07T04:27:37;13.23;;;6.33;;
3175;SDS011;1599;51.564;6.990;2023-08-07T04:30:04;16.00;;;5.07;;
3175;SDS011;1599;51.564;6.990;2023-08-07T04:32:31;15.50;;;6.13;;
3175;SDS011;1599;51.564;6.990;2023-08-07T04:34:56;11.53;;;4.53;;
3175;SDS011;1599;51.564;6.990;2023-08-07T04:37:22;8.93;;;4.63;;
3175;SDS011;1599;51.564;6.990;2023-08-07T04:39:48;12.27;;;4.50;;
3175;SDS011;1599;51.564;6.990;2023-08-07T04:42:14;15.63;;;4.80;;
3175;SDS011;1599;51.564;6.990;2023-08-07T04:44:40;10.53;;;5.17;;
3175;SDS011;1599;51.564;6.990;2023-08-07T04:47:05;14.10;;;5.00;;
3175;SDS011;1599;51.564;6.990;2023-08-07T04:49:31;11.37;;;4.83;;
3175;SDS011;1599;51.564;6.990;2023-08-07T04:51:57;13.90;;;5.13;;
3175;SDS011;1599;51.564;6.990;2023-08-07T04:54:23;15.80;;;5.83;;
3175;SDS011;1599;51.564;6.990;2023-08-07T04:56:48;15.77;;;6.20;;
3175;SDS011;1599;51.564;6.990;2023-08-07T04:59:14;14.83;;;5.67;;
3175;SDS011;1599;51.564;6.990;2023-08-07T05:01:40;14.83;;;5.83;;
3175;SDS011;1599;51.564;6.990;2023-08-07T05:04:06;15.80;;;5.67;;
3175;SDS011;1599;51.564;6.990;2023-08-07T05:06:32;15.23;;;5.80;;
3175;SDS011;1599;51.564;6.990;2023-08-07T05:08:58;10.17;;;5.93;;
3175;SDS011;1599;51.564;6.990;2023-08-07T05:11:23;17.97;;;6.10;;
3175;SDS011;1599;51.564;6.990;2023-08-07T05:13:49;11.73;;;6.10;;
3175;SDS011;1599;51.564;6.990;2023-08-07T05:16:15;13.80;;;6.43;;
3175;SDS011;1599;51.564;6.990;2023-08-07T05:18:43;16.33;;;7.87;;
3175;SDS011;1599;51.564;6.990;2023-08-07T05:21:09;19.80;;;6.57;;
3175;SDS011;1599;51.564;6.990;2023-08-07T05:23:35;17.33;;;6.53;;
3175;SDS011;1599;51.564;6.990;2023-08-07T05:26:00;23.23;;;6.70;;
3175;SDS011;1599;51.564;6.990;2023-08-07T05:28:27;24.80;;;6.57;;
3175;SDS011;1599;51.564;6.990;2023-08-07T05:30:52;13.80;;;6.23;;
3175;SDS011;1599;51.564;6.990;2023-08-07T05:33:18;10.90;;;6.23;;
3175;SDS011;1599;51.564;6.990;2023-08-07T05:35:44;13.40;;;5.70;;
3175;SDS011;1599;51.564;6.990;2023-08-07T05:38:10;11.10;;;5.63;;
3175;SDS011;1599;51.564;6.990;2023-08-07T05:40:35;16.30;;;5.73;;
3175;SDS011;1599;51.564;6.990;2023-08-07T05:43:01;24.53;;;5.93;;
3175;SDS011;1599;51.564;6.990;2023-08-07T05:45:27;20.60;;;6.70;;
3175;SDS011;1599;51.564;6.990;2023-08-07T05:47:53;11.13;;;5.50;;
3175;SDS011;1599;51.564;6.990;2023-08-07T05:50:19;15.33;;;5.97;;
3175;SDS011;1599;51.564;6.990;2023-08-07T05:52:45;17.57;;;5.60;;
3175;SDS011;1599;51.564;6.990;2023-08-07T05:55:10;10.53;;;6.30;;
3175;SDS011;1599;51.564;6.990;2023-08-07T05:57:36;13.17;;;5.80;;
3175;SDS011;1599;51.564;6.990;2023-08-07T06:00:02;20.27;;;5.90;;
3175;SDS011;1599;51.564;6.990;2023-08-07T06:02:28;23.20;;;6.20;;
3175;SDS011;1599;51.564;6.990;2023-08-07T06:04:54;19.77;;;6.70;;
3175;SDS011;1599;51.564;6.990;2023-08-07T06:07:20;17.07;;;7.10;;
3175;SDS011;1599;51.564;6.990;2023-08-07T06:09:46;18.00;;;7.07;;
3175;SDS011;1599;51.564;6.990;2023-08-07T06:12:12;13.83;;;5.73;;
3175;SDS011;1599;51.564;6.990;2023-08-07T06:14:37;10.93;;;5.13;;
3175;SDS011;1599;51.564;6.990;2023-08-07T06:17:03;16.83;;;5.43;;
3175;SDS011;1599;51.564;6.990;2023-08-07T06:19:29;11.77;;;4.57;;
3175;SDS011;1599;51.564;6.990;2023-08-07T06:21:55;9.00;;;4.87;;
3175;SDS011;1599;51.564;6.990;2023-08-07T06:24:21;12.23;;;4.73;;
3175;SDS011;1599;51.564;6.990;2023-08-07T06:26:47;9.20;;;4.20;;
3175;SDS011;1599;51.564;6.990;2023-08-07T06:29:13;12.43;;;4.07;;
3175;SDS011;1599;51.564;6.990;2023-08-07T06:31:38;9.60;;;4.43;;
3175;SDS011;1599;51.564;6.990;2023-08-07T06:34:04;10.50;;;4.17;;
3175;SDS011;1599;51.564;6.990;2023-08-07T06:36:30;11.70;;;4.53;;
3175;SDS011;1599;51.564;6.990;2023-08-07T06:38:56;16.23;;;4.60;;
3175;SDS011;1599;51.564;6.990;2023-08-07T06:41:21;8.77;;;4.43;;
3175;SDS011;1599;51.564;6.990;2023-08-07T06:43:47;7.50;;;3.83;;
3175;SDS011;1599;51.564;6.990;2023-08-07T06:46:14;10.10;;;4.57;;
3175;SDS011;1599;51.564;6.990;2023-08-07T06:48:40;11.07;;;4.80;;
3175;SDS011;1599;51.564;6.990;2023-08-07T06:51:06;7.83;;;4.17;;
3175;SDS011;1599;51.564;6.990;2023-08-07T06:53:32;10.00;;;3.80;;
3175;SDS011;1599;51.564;6.990;2023-08-07T06:55:57;7.90;;;3.93;;
3175;SDS011;1599;51.564;6.990;2023-08-07T06:58:23;9.10;;;3.97;;
3175;SDS011;1599;51.564;6.990;2023-08-07T07:00:49;8.80;;;4.77;;
3175;SDS011;1599;51.564;6.990;2023-08-07T07:03:14;12.50;;;5.43;;
3175;SDS011;1599;51.564;6.990;2023-08-07T07:05:40;9.07;;;5.17;;
3175;SDS011;1599;51.564;6.990;2023-08-07T07:08:08;8.87;;;5.40;;
3175;SDS011;1599;51.564;6.990;2023-08-07T07:10:33;9.57;;;5.73;;
3175;SDS011;1599;51.564;6.990;2023-08-07T07:12:59;9.60;;;5.10;;
3175;SDS011;1599;51.564;6.990;2023-08-07T07:15:25;12.03;;;5.30;;
3175;SDS011;1599;51.564;6.990;2023-08-07T07:17:51;11.73;;;4.77;;
3175;SDS011;1599;51.564;6.990;2023-08-07T07:20:16;8.87;;;5.00;;
3175;SDS011;1599;51.564;6.990;2023-08-07T07:22:42;8.93;;;4.93;;
3175;SDS011;1599;51.564;6.990;2023-08-07T07:25:08;8.77;;;5.30;;
3175;SDS011;1599;51.564;6.990;2023-08-07T07:27:34;15.33;;;5.63;;
3175;SDS011;1599;51.564;6.990;2023-08-07T07:30:00;12.40;;;6.10;;
3175;SDS011;1599;51.564;6.990;2023-08-07T07:32:26;9.47;;;6.67;;
3175;SDS011;1599;51.564;6.990;2023-08-07T07:34:52;16.13;;;5.80;;
3175;SDS011;1599;51.564;6.990;2023-08-07T07:37:17;12.00;;;5.97;;
3175;SDS011;1599;51.564;6.990;2023-08-07T07:39:43;10.83;;;5.60;;
3175;SDS011;1599;51.564;6.990;2023-08-07T07:42:09;14.10;;;6.60;;
3175;SDS011;1599;51.564;6.990;2023-08-07T07:44:35;12.27;;;6.63;;
3175;SDS011;1599;51.564;6.990;2023-08-07T07:47:01;13.60;;;7.20;;
3175;SDS011;1599;51.564;6.990;2023-08-07T07:49:27;16.63;;;7.80;;
3175;SDS011;1599;51.564;6.990;2023-08-07T07:51:53;10.27;;;5.63;;
3175;SDS011;1599;51.564;6.990;2023-08-07T07:54:18;10.93;;;6.17;;
3175;SDS011;1599;51.564;6.990;2023-08-07T07:56:44;11.10;;;6.60;;
3175;SDS011;1599;51.564;6.990;2023-08-07T07:59:10;13.37;;;7.17;;
3175;SDS011;1599;51.564;6.990;2023-08-07T08:01:37;7.70;;;4.90;;
3175;SDS011;1599;51.564;6.990;2023-08-07T08:04:03;13.90;;;6.90;;
3175;SDS011;1599;51.564;6.990;2023-08-07T08:06:29;10.33;;;6.10;;
3175;SDS011;1599;51.564;6.990;2023-08-07T08:08:55;12.80;;;6.50;;
3175;SDS011;1599;51.564;6.990;2023-08-07T08:11:21;9.50;;;4.17;;
3175;SDS011;1599;51.564;6.990;2023-08-07T08:13:47;10.37;;;4.00;;
3175;SDS011;1599;51.564;6.990;2023-08-07T08:16:13;9.10;;;4.10;;
3175;SDS011;1599;51.564;6.990;2023-08-07T08:18:39;8.80;;;4.07;;
3175;SDS011;1599;51.564;6.990;2023-08-07T08:21:05;9.17;;;4.73;;
3175;SDS011;1599;51.564;6.990;2023-08-07T08:23:31;8.50;;;4.60;;
3175;SDS011;1599;51.564;6.990;2023-08-07T08:25:57;8.50;;;4.60;;
3175;SDS011;1599;51.564;6.990;2023-08-07T08:28:23;8.20;;;4.37;;
3175;SDS011;1599;51.564;6.990;2023-08-07T08:30:49;11.10;;;4.20;;
3175;SDS011;1599;51.564;6.990;2023-08-07T08:33:14;13.27;;;5.57;;
3175;SDS011;1599;51.564;6.990;2023-08-07T08:35:40;17.03;;;5.87;;
3175;SDS011;1599;51.564;6.990;2023-08-07T08:38:06;10.90;;;6.10;;
3175;SDS011;1599;51.564;6.990;2023-08-07T08:40:33;18.07;;;6.10;;
3175;SDS011;1599;51.564;6.990;2023-08-07T08:43:00;17.60;;;7.03;;
3175;SDS011;1599;51.564;6.990;2023-08-07T08:45:26;13.00;;;6.73;;
3175;SDS011;1599;51.564;6.990;2023-08-07T08:47:54;14.73;;;6.90;;
3175;SDS011;1599;51.564;6.990;2023-08-07T08:50:25;16.17;;;6.90;;
3175;SDS011;1599;51.564;6.990;2023-08-07T08:52:51;13.67;;;7.23;;
3175;SDS011;1599;51.564;6.990;2023-08-07T08:55:20;22.70;;;9.93;;
3175;SDS011;1599;51.564;6.990;2023-08-07T08:57:47;16.00;;;7.77;;
3175;SDS011;1599;51.564;6.990;2023-08-07T09:00:15;19.63;;;6.27;;
3175;SDS011;1599;51.564;6.990;2023-08-07T09:02:49;15.20;;;5.90;;
3175;SDS011;1599;51.564;6.990;2023-08-07T09:05:17;18.20;;;6.20;;
3175;SDS011;1599;51.564;6.990;2023-08-07T09:07:47;17.07;;;5.20;;
3175;SDS011;1599;51.564;6.990;2023-08-07T09:10:14;13.27;;;5.60;;
3175;SDS011;1599;51.564;6.990;2023-08-07T09:12:42;13.83;;;5.43;;
3175;SDS011;1599;51.564;6.990;2023-08-07T09:15:25;21.37;;;5.77;;
3175;SDS011;1599;51.564;6.990;2023-08-07T09:17:52;12.10;;;5.43;;
3175;SDS011;1599;51.564;6.990;2023-08-07T09:20:19;11.30;;;5.10;;
3175;SDS011;1599;51.564;6.990;2023-08-07T09:22:45;10.63;;;5.17;;
3175;SDS011;1599;51.564;6.990;2023-08-07T09:25:11;7.63;;;4.47;;
3175;SDS011;1599;51.564;6.990;2023-08-07T09:27:40;6.83;;;4.47;;
3175;SDS011;1599;51.564;6.990;2023-08-07T09:30:06;11.23;;;4.90;;
3175;SDS011;1599;51.564;6.990;2023-08-07T09:32:36;8.83;;;4.40;;
3175;SDS011;1599;51.564;6.990;2023-08-07T09:35:02;8.43;;;3.87;;
3175;SDS011;1599;51.564;6.990;2023-08-07T09:37:31;9.47;;;4.87;;
3175;SDS011;1599;51.564;6.990;2023-08-07T09:39:59;14.53;;;4.50;;
3175;SDS011;1599;51.564;6.990;2023-08-07T09:42:26;14.37;;;5.00;;
3175;SDS011;1599;51.564;6.990;2023-08-07T09:44:58;14.97;;;5.20;;
3175;SDS011;1599;51.564;6.990;2023-08-07T09:47:27;6.40;;;3.43;;
3175;SDS011;1599;51.564;6.990;2023-08-07T09:49:54;11.50;;;4.07;;
3175;SDS011;1599;51.564;6.990;2023-08-07T09:52:21;9.50;;;3.60;;
3175;SDS011;1599;51.564;6.990;2023-08-07T09:54:46;9.87;;;4.00;;
3175;SDS011;1599;51.564;6.990;2023-08-07T09:57:12;10.50;;;4.70;;
3175;SDS011;1599;51.564;6.990;2023-08-07T09:59:39;11.03;;;4.60;;
3175;SDS011;1599;51.564;6.990;2023-08-07T10:02:05;8.90;;;4.70;;
3175;SDS011;1599;51.564;6.990;2023-08-07T10:04:33;10.20;;;4.33;;
3175;SDS011;1599;51.564;6.990;2023-08-07T10:07:01;11.50;;;4.57;;
3175;SDS011;1599;51.564;6.990;2023-08-07T10:09:27;18.37;;;4.90;;
3175;SDS011;1599;51.564;6.990;2023-08-07T10:11:54;8.43;;;4.80;;
3175;SDS011;1599;51.564;6.990;2023-08-07T10:14:20;8.30;;;5.40;;
3175;SDS011;1599;51.564;6.990;2023-08-07T10:16:47;14.10;;;4.97;;
3175;SDS011;1599;51.564;6.990;2023-08-07T10:19:14;10.00;;;4.50;;
3175;SDS011;1599;51.564;6.990;2023-08-07T10:21:40;15.57;;;4.90;;
3175;SDS011;1599;51.564;6.990;2023-08-07T10:24:08;10.40;;;4.97;;
3175;SDS011;1599;51.564;6.990;2023-08-07T10:26:35;7.87;;;5.23;;
3175;SDS011;1599;51.564;6.990;2023-08-07T10:29:09;10.40;;;4.83;;
3175;SDS011;1599;51.564;6.990;2023-08-07T10:31:39;12.80;;;5.83;;
3175;SDS011;1599;51.564;6.990;2023-08-07T10:34:07;7.47;;;3.90;;
3175;SDS011;1599;51.564;6.990;2023-08-07T10:36:34;12.20;;;5.40;;
3175;SDS011;1599;51.564;6.990;2023-08-07T10:39:11;11.00;;;4.43;;
3175;SDS011;1599;51.564;6.990;2023-08-07T10:41:41;14.20;;;5.27;;
3175;SDS011;1599;51.564;6.990;2023-08-07T10:44:26;15.00;;;5.60;;
3175;SDS011;1599;51.564;6.990;2023-08-07T10:46:58;12.33;;;5.07;;
3175;SDS011;1599;51.564;6.990;2023-08-07T10:49:29;13.20;;;5.10;;
3175;SDS011;1599;51.564;6.990;2023-08-07T10:54:38;12.73;;;4.13;;
3175;SDS011;1599;51.564;6.990;2023-08-07T10:57:13;11.17;;;4.33;;
3175;SDS011;1599;51.564;6.990;2023-08-07T11:02:24;12.63;;;4.60;;
3175;SDS011;1599;51.564;6.990;2023-08-07T11:04:52;8.90;;;4.37;;
3175;SDS011;1599;51.564;6.990;2023-08-07T11:07:28;10.17;;;4.30;;
3175;SDS011;1599;51.564;6.990;2023-08-07T11:09:55;7.77;;;3.90;;
3175;SDS011;1599;51.564;6.990;2023-08-07T11:12:26;7.77;;;3.70;;
3175;SDS011;1599;51.564;6.990;2023-08-07T11:14:53;11.87;;;4.20;;
3175;SDS011;1599;51.564;6.990;2023-08-07T11:17:25;8.87;;;3.93;;
3175;SDS011;1599;51.564;6.990;2023-08-07T11:19:53;9.93;;;4.63;;
3175;SDS011;1599;51.564;6.990;2023-08-07T11:22:20;13.00;;;6.03;;
3175;SDS011;1599;51.564;6.990;2023-08-07T11:24:46;10.07;;;3.50;;
3175;SDS011;1599;51.564;6.990;2023-08-07T11:27:12;9.00;;;3.80;;
3175;SDS011;1599;51.564;6.990;2023-08-07T11:29:38;9.93;;;4.00;;
3175;SDS011;1599;51.564;6.990;2023-08-07T11:32:04;8.07;;;3.67;;
3175;SDS011;1599;51.564;6.990;2023-08-07T11:34:31;11.03;;;3.70;;
3175;SDS011;1599;51.564;6.990;2023-08-07T11:36:56;6.23;;;2.93;;
3175;SDS011;1599;51.564;6.990;2023-08-07T11:39:23;7.47;;;3.80;;
3175;SDS011;1599;51.564;6.990;2023-08-07T11:41:53;10.23;;;3.47;;
3175;SDS011;1599;51.564;6.990;2023-08-07T11:44:19;5.93;;;3.47;;
3175;SDS011;1599;51.564;6.990;2023-08-07T11:46:44;7.10;;;3.43;;
3175;SDS011;1599;51.564;6.990;2023-08-07T11:49:10;8.10;;;4.30;;
3175;SDS011;1599;51.564;6.990;2023-08-07T11:51:37;5.80;;;3.10;;
3175;SDS011;1599;51.564;6.990;2023-08-07T11:54:03;8.27;;;3.43;;
3175;SDS011;1599;51.564;6.990;2023-08-07T11:56:29;4.90;;;3.47;;
3175;SDS011;1599;51.564;6.990;2023-08-07T11:58:56;11.87;;;5.20;;
3175;SDS011;1599;51.564;6.990;2023-08-07T12:01:23;8.40;;;3.90;;
3175;SDS011;1599;51.564;6.990;2023-08-07T12:03:52;18.53;;;3.70;;
3175;SDS011;1599;51.564;6.990;2023-08-07T12:06:20;7.70;;;3.70;;
3175;SDS011;1599;51.564;6.990;2023-08-07T12:08:48;7.67;;;3.70;;
3175;SDS011;1599;51.564;6.990;2023-08-07T12:11:18;9.70;;;3.53;;
3175;SDS011;1599;51.564;6.990;2023-08-07T12:13:45;6.30;;;3.07;;
3175;SDS011;1599;51.564;6.990;2023-08-07T12:16:13;10.77;;;4.33;;
3175;SDS011;1599;51.564;6.990;2023-08-07T12:18:44;7.87;;;3.20;;
3175;SDS011;1599;51.564;6.990;2023-08-07T12:21:13;7.33;;;3.40;;
3175;SDS011;1599;51.564;6.990;2023-08-07T12:23:41;11.73;;;3.60;;
3175;SDS011;1599;51.564;6.990;2023-08-07T12:26:07;10.77;;;4.17;;
3175;SDS011;1599;51.564;6.990;2023-08-07T12:28:34;7.07;;;3.53;;
3175;SDS011;1599;51.564;6.990;2023-08-07T12:31:00;7.80;;;3.07;;
3175;SDS011;1599;51.564;6.990;2023-08-07T12:33:28;4.83;;;2.93;;
3175;SDS011;1599;51.564;6.990;2023-08-07T12:35:56;8.43;;;3.50;;
3175;SDS011;1599;51.564;6.990;2023-08-07T12:38:23;6.73;;;4.07;;
3175;SDS011;1599;51.564;6.990;2023-08-07T12:40:49;6.60;;;3.30;;
3175;SDS011;1599;51.564;6.990;2023-08-07T12:43:15;9.93;;;3.50;;
3175;SDS011;1599;51.564;6.990;2023-08-07T12:45:41;7.37;;;3.23;;
3175;SDS011;1599;51.564;6.990;2023-08-07T12:48:07;7.47;;;2.90;;
3175;SDS011;1599;51.564;6.990;2023-08-07T12:50:33;6.63;;;2.77;;
3175;SDS011;1599;51.564;6.990;2023-08-07T12:52:59;7.70;;;3.40;;
3175;SDS011;1599;51.564;6.990;2023-08-07T12:55:25;10.60;;;4.93;;
3175;SDS011;1599;51.564;6.990;2023-08-07T12:57:52;6.53;;;3.00;;
3175;SDS011;1599;51.564;6.990;2023-08-07T13:00:18;7.00;;;3.10;;
3175;SDS011;1599;51.564;6.990;2023-08-07T13:02:45;4.10;;;2.40;;
3175;SDS011;1599;51.564;6.990;2023-08-07T13:05:14;7.30;;;3.03;;
3175;SDS011;1599;51.564;6.990;2023-08-07T13:07:42;7.60;;;3.33;;
3175;SDS011;1599;51.564;6.990;2023-08-07T13:10:09;8.13;;;2.80;;
3175;SDS011;1599;51.564;6.990;2023-08-07T13:12:39;6.40;;;3.50;;
3175;SDS011;1599;51.564;6.990;2023-08-07T13:15:07;7.53;;;3.10;;
3175;SDS011;1599;51.564;6.990;2023-08-07T13:17:38;7.60;;;3.00;;
3175;SDS011;1599;51.564;6.990;2023-08-07T13:20:05;4.43;;;2.70;;
3175;SDS011;1599;51.564;6.990;2023-08-07T13:22:39;8.50;;;3.43;;
3175;SDS011;1599;51.564;6.990;2023-08-07T13:25:07;13.70;;;3.40;;
3175;SDS011;1599;51.564;6.990;2023-08-07T13:27:34;7.47;;;3.80;;
3175;SDS011;1599;51.564;6.990;2023-08-07T13:30:02;8.37;;;3.20;;
3175;SDS011;1599;51.564;6.990;2023-08-07T13:32:29;6.00;;;2.77;;
3175;SDS011;1599;51.564;6.990;2023-08-07T13:34:55;5.07;;;2.73;;
3175;SDS011;1599;51.564;6.990;2023-08-07T13:37:21;8.13;;;3.30;;
3175;SDS011;1599;51.564;6.990;2023-08-07T13:39:47;5.73;;;2.50;;
3175;SDS011;1599;51.564;6.990;2023-08-07T13:42:14;7.47;;;3.10;;
3175;SDS011;1599;51.564;6.990;2023-08-07T13:44:40;7.33;;;3.03;;
3175;SDS011;1599;51.564;6.990;2023-08-07T13:47:06;8.93;;;3.00;;
3175;SDS011;1599;51.564;6.990;2023-08-07T13:49:32;7.00;;;2.77;;
3175;SDS011;1599;51.564;6.990;2023-08-07T13:51:59;8.30;;;3.13;;
3175;SDS011;1599;51.564;6.990;2023-08-07T13:54:25;10.60;;;3.90;;
3175;SDS011;1599;51.564;6.990;2023-08-07T13:56:50;9.33;;;2.63;;
3175;SDS011;1599;51.564;6.990;2023-08-07T13:59:16;3.27;;;2.30;;
3175;SDS011;1599;51.564;6.990;2023-08-07T14:01:42;4.87;;;2.50;;
3175;SDS011;1599;51.564;6.990;2023-08-07T14:04:08;3.90;;;2.40;;
3175;SDS011;1599;51.564;6.990;2023-08-07T14:06:34;4.20;;;2.00;;
3175;SDS011;1599;51.564;6.990;2023-08-07T14:08:59;6.13;;;2.53;;
3175;SDS011;1599;51.564;6.990;2023-08-07T14:11:25;7.17;;;3.00;;
3175;SDS011;1599;51.564;6.990;2023-08-07T14:13:59;6.27;;;2.37;;
3175;SDS011;1599;51.564;6.990;2023-08-07T14:16:25;7.40;;;2.40;;
3175;SDS011;1599;51.564;6.990;2023-08-07T14:18:50;6.33;;;3.03;;
3175;SDS011;1599;51.564;6.990;2023-08-07T14:21:16;7.60;;;2.87;;
3175;SDS011;1599;51.564;6.990;2023-08-07T14:23:42;5.17;;;2.40;;
3175;SDS011;1599;51.564;6.990;2023-08-07T14:26:10;3.10;;;2.20;;
3175;SDS011;1599;51.564;6.990;2023-08-07T14:28:39;6.40;;;2.30;;
3175;SDS011;1599;51.564;6.990;2023-08-07T14:31:09;5.40;;;2.00;;
3175;SDS011;1599;51.564;6.990;2023-08-07T14:33:34;6.33;;;2.57;;
3175;SDS011;1599;51.564;6.990;2023-08-07T14:36:01;4.67;;;2.30;;
3175;SDS011;1599;51.564;6.990;2023-08-07T14:38:27;6.60;;;2.50;;
3175;SDS011;1599;51.564;6.990;2023-08-07T14:40:53;5.80;;;2.83;;
3175;SDS011;1599;51.564;6.990;2023-08-07T14:43:20;7.00;;;2.10;;
3175;SDS011;1599;51.564;6.990;2023-08-07T14:45:46;7.27;;;2.57;;
3175;SDS011;1599;51.564;6.990;2023-08-07T14:48:13;7.73;;;2.23;;
3175;SDS011;1599;51.564;6.990;2023-08-07T14:50:40;4.90;;;2.43;;
3175;SDS011;1599;51.564;6.990;2023-08-07T14:53:06;3.30;;;2.03;;
3175;SDS011;1599;51.564;6.990;2023-08-07T14:55:32;4.80;;;2.40;;
3175;SDS011;1599;51.564;6.990;2023-08-07T14:57:58;4.23;;;2.10;;
3175;SDS011;1599;51.564;6.990;2023-08-07T15:00:24;5.93;;;2.70;;
3175;SDS011;1599;51.564;6.990;2023-08-07T15:02:50;4.83;;;2.33;;
3175;SDS011;1599;51.564;6.990;2023-08-07T15:05:15;5.80;;;2.47;;
3175;SDS011;1599;51.564;6.990;2023-08-07T15:07:41;3.33;;;2.13;;
3175;SDS011;1599;51.564;6.990;2023-08-07T15:10:07;5.10;;;2.50;;
3175;SDS011;1599;51.564;6.990;2023-08-07T15:12:34;3.70;;;2.27;;
3175;SDS011;1599;51.564;6.990;2023-08-07T15:14:59;3.43;;;2.27;;
3175;SDS011;1599;51.564;6.990;2023-08-07T15:17:26;4.97;;;2.40;;